sensor_id;sensor_type;location;lat;lon;timestamp;P1;durP1;ratioP1;P2;durP2;ratioP2
43088;SDS011;28709;52.030;5.652;2024-02-26T00:01:39;2.83;;;1.55;;
43088;SDS011;28709;52.030;5.652;2024-02-26T00:04:05;3.88;;;1.40;;
43088;SDS011;28709;52.030;5.652;2024-02-26T00:06:31;1.95;;;1.40;;
43088;SDS011;28709;52.030;5.652;2024-02-26T00:08:57;2.63;;;1.85;;
43088;SDS011;28709;52.030;5.652;2024-02-26T00:11:23;6.22;;;1.73;;
43088;SDS011;28709;52.030;5.652;2024-02-26T00:13:49;1.65;;;1.23;;
43088;SDS011;28709;52.030;5.652;2024-02-26T00:16:15;3.85;;;1.88;;
43088;SDS011;28709;52.030;5.652;2024-02-26T00:18:41;9.35;;;1.70;;
43088;SDS011;28709;52.030;5.652;2024-02-26T00:21:07;3.17;;;2.28;;
43088;SDS011;28709;52.030;5.652;2024-02-26T00:23:33;1.60;;;1.17;;
43088;SDS011;28709;52.030;5.652;2024-02-26T00:25:59;8.18;;;2.35;;
43088;SDS011;28709;52.030;5.652;2024-02-26T00:28:25;3.17;;;1.50;;
43088;SDS011;28709;52.030;5.652;2024-02-26T00:30:52;2.50;;;1.75;;
43088;SDS011;28709;52.030;5.652;2024-02-26T00:33:20;2.33;;;1.33;;
43088;SDS011;28709;52.030;5.652;2024-02-26T00:35:47;3.08;;;2.03;;
43088;SDS011;28709;52.030;5.652;2024-02-26T00:38:13;2.25;;;1.60;;
43088;SDS011;28709;52.030;5.652;2024-02-26T00:40:39;3.05;;;2.05;;
43088;SDS011;28709;52.030;5.652;2024-02-26T00:43:06;2.15;;;1.63;;
43088;SDS011;28709;52.030;5.652;2024-02-26T00:45:32;2.25;;;1.38;;
43088;SDS011;28709;52.030;5.652;2024-02-26T00:47:58;3.85;;;2.80;;
43088;SDS011;28709;52.030;5.652;2024-02-26T00:50:26;3.25;;;1.27;;
43088;SDS011;28709;52.030;5.652;2024-02-26T00:52:52;3.28;;;1.65;;
43088;SDS011;28709;52.030;5.652;2024-02-26T00:55:18;2.38;;;1.25;;
43088;SDS011;28709;52.030;5.652;2024-02-26T00:57:44;1.92;;;1.23;;
43088;SDS011;28709;52.030;5.652;2024-02-26T01:00:11;1.58;;;1.17;;
43088;SDS011;28709;52.030;5.652;2024-02-26T01:02:37;6.75;;;1.67;;
43088;SDS011;28709;52.030;5.652;2024-02-26T01:05:04;2.78;;;1.40;;
43088;SDS011;28709;52.030;5.652;2024-02-26T01:07:31;3.22;;;1.75;;
43088;SDS011;28709;52.030;5.652;2024-02-26T01:10:01;4.55;;;1.90;;
43088;SDS011;28709;52.030;5.652;2024-02-26T01:12:27;2.58;;;1.65;;
43088;SDS011;28709;52.030;5.652;2024-02-26T01:14:53;2.08;;;1.25;;
43088;SDS011;28709;52.030;5.652;2024-02-26T01:17:19;2.47;;;2.03;;
43088;SDS011;28709;52.030;5.652;2024-02-26T01:19:45;2.28;;;1.33;;
43088;SDS011;28709;52.030;5.652;2024-02-26T01:22:11;2.75;;;1.50;;
43088;SDS011;28709;52.030;5.652;2024-02-26T01:24:37;2.40;;;1.63;;
43088;SDS011;28709;52.030;5.652;2024-02-26T01:27:03;4.32;;;1.85;;
43088;SDS011;28709;52.030;5.652;2024-02-26T01:29:29;1.55;;;1.35;;
43088;SDS011;28709;52.030;5.652;2024-02-26T01:31:55;2.75;;;1.73;;
43088;SDS011;28709;52.030;5.652;2024-02-26T01:34:21;3.67;;;1.80;;
43088;SDS011;28709;52.030;5.652;2024-02-26T01:36:47;1.65;;;1.40;;
43088;SDS011;28709;52.030;5.652;2024-02-26T01:39:14;2.72;;;1.63;;
43088;SDS011;28709;52.030;5.652;2024-02-26T01:41:40;1.48;;;1.23;;
43088;SDS011;28709;52.030;5.652;2024-02-26T01:44:06;2.70;;;1.77;;
43088;SDS011;28709;52.030;5.652;2024-02-26T01:46:35;2.70;;;1.60;;
43088;SDS011;28709;52.030;5.652;2024-02-26T01:49:02;4.85;;;1.42;;
43088;SDS011;28709;52.030;5.652;2024-02-26T01:51:28;2.97;;;1.55;;
43088;SDS011;28709;52.030;5.652;2024-02-26T01:53:54;5.93;;;1.58;;
43088;SDS011;28709;52.030;5.652;2024-02-26T01:56:21;4.95;;;2.35;;
43088;SDS011;28709;52.030;5.652;2024-02-26T01:58:47;4.82;;;1.52;;
43088;SDS011;28709;52.030;5.652;2024-02-26T02:01:14;1.65;;;1.20;;
43088;SDS011;28709;52.030;5.652;2024-02-26T02:03:43;3.17;;;1.70;;
43088;SDS011;28709;52.030;5.652;2024-02-26T02:06:10;2.97;;;1.55;;
43088;SDS011;28709;52.030;5.652;2024-02-26T02:08:36;3.92;;;1.90;;
43088;SDS011;28709;52.030;5.652;2024-02-26T02:11:03;4.32;;;1.25;;
43088;SDS011;28709;52.030;5.652;2024-02-26T02:13:29;4.13;;;2.13;;
43088;SDS011;28709;52.030;5.652;2024-02-26T02:15:55;2.90;;;1.42;;
43088;SDS011;28709;52.030;5.652;2024-02-26T02:18:21;4.47;;;1.83;;
43088;SDS011;28709;52.030;5.652;2024-02-26T02:20:47;3.97;;;2.08;;
43088;SDS011;28709;52.030;5.652;2024-02-26T02:23:13;3.17;;;1.83;;
43088;SDS011;28709;52.030;5.652;2024-02-26T02:25:39;5.15;;;2.00;;
43088;SDS011;28709;52.030;5.652;2024-02-26T02:28:05;2.30;;;1.65;;
43088;SDS011;28709;52.030;5.652;2024-02-26T02:30:31;2.60;;;1.77;;
43088;SDS011;28709;52.030;5.652;2024-02-26T02:32:58;3.20;;;1.65;;
43088;SDS011;28709;52.030;5.652;2024-02-26T02:35:24;3.53;;;2.28;;
43088;SDS011;28709;52.030;5.652;2024-02-26T02:37:51;5.38;;;2.28;;
43088;SDS011;28709;52.030;5.652;2024-02-26T02:40:18;3.10;;;1.88;;
43088;SDS011;28709;52.030;5.652;2024-02-26T02:42:44;3.33;;;1.88;;
43088;SDS011;28709;52.030;5.652;2024-02-26T02:45:10;3.20;;;1.77;;
43088;SDS011;28709;52.030;5.652;2024-02-26T02:47:36;2.58;;;1.90;;
43088;SDS011;28709;52.030;5.652;2024-02-26T02:50:03;5.43;;;2.33;;
43088;SDS011;28709;52.030;5.652;2024-02-26T02:52:29;6.68;;;2.13;;
43088;SDS011;28709;52.030;5.652;2024-02-26T02:54:55;3.03;;;1.85;;
43088;SDS011;28709;52.030;5.652;2024-02-26T02:57:21;4.85;;;2.45;;
43088;SDS011;28709;52.030;5.652;2024-02-26T02:59:47;4.93;;;2.25;;
43088;SDS011;28709;52.030;5.652;2024-02-26T03:02:13;5.93;;;2.10;;
43088;SDS011;28709;52.030;5.652;2024-02-26T03:04:39;3.92;;;2.17;;
43088;SDS011;28709;52.030;5.652;2024-02-26T03:07:05;4.15;;;2.28;;
43088;SDS011;28709;52.030;5.652;2024-02-26T03:09:31;4.18;;;2.55;;
43088;SDS011;28709;52.030;5.652;2024-02-26T03:11:57;4.85;;;2.72;;
43088;SDS011;28709;52.030;5.652;2024-02-26T03:14:23;4.47;;;2.00;;
43088;SDS011;28709;52.030;5.652;2024-02-26T03:16:52;2.55;;;1.88;;
43088;SDS011;28709;52.030;5.652;2024-02-26T03:19:19;2.25;;;1.65;;
43088;SDS011;28709;52.030;5.652;2024-02-26T03:21:45;7.05;;;1.92;;
43088;SDS011;28709;52.030;5.652;2024-02-26T03:24:11;8.93;;;2.28;;
43088;SDS011;28709;52.030;5.652;2024-02-26T03:26:37;6.10;;;2.05;;
43088;SDS011;28709;52.030;5.652;2024-02-26T03:29:04;2.63;;;1.80;;
43088;SDS011;28709;52.030;5.652;2024-02-26T03:31:30;3.47;;;2.05;;
43088;SDS011;28709;52.030;5.652;2024-02-26T03:33:56;3.45;;;1.83;;
43088;SDS011;28709;52.030;5.652;2024-02-26T03:36:22;4.03;;;2.22;;
43088;SDS011;28709;52.030;5.652;2024-02-26T03:38:49;4.90;;;2.53;;
43088;SDS011;28709;52.030;5.652;2024-02-26T03:41:15;2.35;;;1.70;;
43088;SDS011;28709;52.030;5.652;2024-02-26T03:43:41;3.45;;;2.08;;
43088;SDS011;28709;52.030;5.652;2024-02-26T03:46:07;2.08;;;1.48;;
43088;SDS011;28709;52.030;5.652;2024-02-26T03:48:34;1.58;;;1.48;;
43088;SDS011;28709;52.030;5.652;2024-02-26T03:51:00;3.17;;;1.92;;
43088;SDS011;28709;52.030;5.652;2024-02-26T03:53:26;2.65;;;1.77;;
43088;SDS011;28709;52.030;5.652;2024-02-26T03:55:53;2.50;;;1.60;;
43088;SDS011;28709;52.030;5.652;2024-02-26T03:58:20;2.17;;;1.52;;
43088;SDS011;28709;52.030;5.652;2024-02-26T04:00:46;2.22;;;1.73;;
43088;SDS011;28709;52.030;5.652;2024-02-26T04:03:15;5.18;;;1.80;;
43088;SDS011;28709;52.030;5.652;2024-02-26T04:05:41;3.22;;;1.83;;
43088;SDS011;28709;52.030;5.652;2024-02-26T04:08:07;2.95;;;1.83;;
43088;SDS011;28709;52.030;5.652;2024-02-26T04:10:33;4.22;;;2.40;;
43088;SDS011;28709;52.030;5.652;2024-02-26T04:13:07;3.92;;;2.38;;
43088;SDS011;28709;52.030;5.652;2024-02-26T04:15:33;2.75;;;1.50;;
43088;SDS011;28709;52.030;5.652;2024-02-26T04:17:59;3.97;;;2.13;;
43088;SDS011;28709;52.030;5.652;2024-02-26T04:20:25;2.60;;;1.80;;
43088;SDS011;28709;52.030;5.652;2024-02-26T04:22:51;2.05;;;1.60;;
43088;SDS011;28709;52.030;5.652;2024-02-26T04:25:18;4.78;;;2.33;;
43088;SDS011;28709;52.030;5.652;2024-02-26T04:27:44;3.95;;;2.50;;
43088;SDS011;28709;52.030;5.652;2024-02-26T04:30:10;4.30;;;2.47;;
43088;SDS011;28709;52.030;5.652;2024-02-26T04:32:36;7.93;;;2.35;;
43088;SDS011;28709;52.030;5.652;2024-02-26T04:35:02;4.32;;;2.63;;
43088;SDS011;28709;52.030;5.652;2024-02-26T04:37:28;4.18;;;1.90;;
43088;SDS011;28709;52.030;5.652;2024-02-26T04:39:59;3.75;;;2.40;;
43088;SDS011;28709;52.030;5.652;2024-02-26T04:42:25;4.43;;;1.85;;
43088;SDS011;28709;52.030;5.652;2024-02-26T04:44:51;4.40;;;2.30;;
43088;SDS011;28709;52.030;5.652;2024-02-26T04:47:17;4.72;;;2.45;;
43088;SDS011;28709;52.030;5.652;2024-02-26T04:49:44;4.18;;;2.50;;
43088;SDS011;28709;52.030;5.652;2024-02-26T04:52:11;3.05;;;1.75;;
43088;SDS011;28709;52.030;5.652;2024-02-26T04:54:36;5.88;;;2.42;;
43088;SDS011;28709;52.030;5.652;2024-02-26T04:57:02;4.20;;;2.17;;
43088;SDS011;28709;52.030;5.652;2024-02-26T04:59:29;7.53;;;2.80;;
43088;SDS011;28709;52.030;5.652;2024-02-26T05:01:55;4.13;;;2.13;;
43088;SDS011;28709;52.030;5.652;2024-02-26T05:04:21;4.13;;;2.30;;
43088;SDS011;28709;52.030;5.652;2024-02-26T05:06:47;4.47;;;2.60;;
43088;SDS011;28709;52.030;5.652;2024-02-26T05:09:13;9.60;;;2.92;;
43088;SDS011;28709;52.030;5.652;2024-02-26T05:11:39;4.53;;;2.22;;
43088;SDS011;28709;52.030;5.652;2024-02-26T05:14:06;4.20;;;2.20;;
43088;SDS011;28709;52.030;5.652;2024-02-26T05:16:32;3.65;;;2.20;;
43088;SDS011;28709;52.030;5.652;2024-02-26T05:18:58;3.80;;;2.30;;
43088;SDS011;28709;52.030;5.652;2024-02-26T05:21:24;4.60;;;2.40;;
43088;SDS011;28709;52.030;5.652;2024-02-26T05:23:50;4.32;;;2.00;;
43088;SDS011;28709;52.030;5.652;2024-02-26T05:26:22;6.00;;;3.15;;
43088;SDS011;28709;52.030;5.652;2024-02-26T05:28:48;3.08;;;1.70;;
43088;SDS011;28709;52.030;5.652;2024-02-26T05:31:14;4.65;;;2.38;;
43088;SDS011;28709;52.030;5.652;2024-02-26T05:33:40;4.57;;;1.95;;
43088;SDS011;28709;52.030;5.652;2024-02-26T05:36:06;4.45;;;2.63;;
43088;SDS011;28709;52.030;5.652;2024-02-26T05:38:32;4.63;;;2.40;;
43088;SDS011;28709;52.030;5.652;2024-02-26T05:40:59;5.60;;;3.00;;
43088;SDS011;28709;52.030;5.652;2024-02-26T05:43:25;3.83;;;2.25;;
43088;SDS011;28709;52.030;5.652;2024-02-26T05:45:51;6.35;;;2.42;;
43088;SDS011;28709;52.030;5.652;2024-02-26T05:48:17;2.58;;;2.00;;
43088;SDS011;28709;52.030;5.652;2024-02-26T05:50:44;3.63;;;2.00;;
43088;SDS011;28709;52.030;5.652;2024-02-26T05:53:10;5.68;;;2.30;;
43088;SDS011;28709;52.030;5.652;2024-02-26T05:55:36;5.55;;;3.08;;
43088;SDS011;28709;52.030;5.652;2024-02-26T05:58:02;2.88;;;1.77;;
43088;SDS011;28709;52.030;5.652;2024-02-26T06:00:28;3.05;;;1.90;;
43088;SDS011;28709;52.030;5.652;2024-02-26T06:02:54;3.17;;;1.95;;
43088;SDS011;28709;52.030;5.652;2024-02-26T06:05:20;5.13;;;2.63;;
43088;SDS011;28709;52.030;5.652;2024-02-26T06:07:46;4.97;;;2.17;;
43088;SDS011;28709;52.030;5.652;2024-02-26T06:10:13;4.38;;;2.60;;
43088;SDS011;28709;52.030;5.652;2024-02-26T06:12:39;4.25;;;3.15;;
43088;SDS011;28709;52.030;5.652;2024-02-26T06:15:05;3.47;;;2.05;;
43088;SDS011;28709;52.030;5.652;2024-02-26T06:17:31;4.72;;;2.58;;
43088;SDS011;28709;52.030;5.652;2024-02-26T06:19:58;4.72;;;2.55;;
43088;SDS011;28709;52.030;5.652;2024-02-26T06:22:24;5.07;;;2.75;;
43088;SDS011;28709;52.030;5.652;2024-02-26T06:24:50;4.28;;;2.03;;
43088;SDS011;28709;52.030;5.652;2024-02-26T06:27:16;4.78;;;2.67;;
43088;SDS011;28709;52.030;5.652;2024-02-26T06:29:43;5.15;;;2.58;;
43088;SDS011;28709;52.030;5.652;2024-02-26T06:32:09;5.35;;;2.70;;
43088;SDS011;28709;52.030;5.652;2024-02-26T06:34:35;4.80;;;3.13;;
43088;SDS011;28709;52.030;5.652;2024-02-26T06:37:01;5.93;;;2.90;;
43088;SDS011;28709;52.030;5.652;2024-02-26T06:39:28;4.75;;;2.63;;
43088;SDS011;28709;52.030;5.652;2024-02-26T06:41:54;7.00;;;3.28;;
43088;SDS011;28709;52.030;5.652;2024-02-26T06:44:25;4.93;;;2.75;;
43088;SDS011;28709;52.030;5.652;2024-02-26T06:46:51;2.80;;;1.95;;
43088;SDS011;28709;52.030;5.652;2024-02-26T06:49:18;5.07;;;2.75;;
43088;SDS011;28709;52.030;5.652;2024-02-26T06:51:44;4.38;;;2.35;;
43088;SDS011;28709;52.030;5.652;2024-02-26T06:54:10;5.25;;;2.92;;
43088;SDS011;28709;52.030;5.652;2024-02-26T06:56:36;6.25;;;2.95;;
43088;SDS011;28709;52.030;5.652;2024-02-26T06:59:02;5.43;;;2.95;;
43088;SDS011;28709;52.030;5.652;2024-02-26T07:01:28;5.28;;;2.90;;
43088;SDS011;28709;52.030;5.652;2024-02-26T07:03:55;6.20;;;2.97;;
43088;SDS011;28709;52.030;5.652;2024-02-26T07:06:21;6.68;;;3.00;;
43088;SDS011;28709;52.030;5.652;2024-02-26T07:08:47;5.75;;;3.13;;
43088;SDS011;28709;52.030;5.652;2024-02-26T07:11:20;5.30;;;2.85;;
43088;SDS011;28709;52.030;5.652;2024-02-26T07:13:51;7.78;;;3.13;;
43088;SDS011;28709;52.030;5.652;2024-02-26T07:16:17;6.78;;;2.65;;
43088;SDS011;28709;52.030;5.652;2024-02-26T07:18:44;9.50;;;4.18;;
43088;SDS011;28709;52.030;5.652;2024-02-26T07:21:11;8.95;;;5.15;;
43088;SDS011;28709;52.030;5.652;2024-02-26T07:23:40;8.40;;;3.67;;
43088;SDS011;28709;52.030;5.652;2024-02-26T07:26:06;5.28;;;2.83;;
43088;SDS011;28709;52.030;5.652;2024-02-26T07:28:33;11.13;;;3.80;;
43088;SDS011;28709;52.030;5.652;2024-02-26T07:30:59;6.43;;;2.63;;
43088;SDS011;28709;52.030;5.652;2024-02-26T07:33:25;7.60;;;4.32;;
43088;SDS011;28709;52.030;5.652;2024-02-26T07:35:51;6.85;;;3.80;;
43088;SDS011;28709;52.030;5.652;2024-02-26T07:38:18;9.73;;;4.10;;
43088;SDS011;28709;52.030;5.652;2024-02-26T07:40:44;8.13;;;4.05;;
43088;SDS011;28709;52.030;5.652;2024-02-26T07:43:10;9.52;;;4.25;;
43088;SDS011;28709;52.030;5.652;2024-02-26T07:45:37;11.40;;;4.63;;
43088;SDS011;28709;52.030;5.652;2024-02-26T07:48:03;8.52;;;3.40;;
43088;SDS011;28709;52.030;5.652;2024-02-26T07:50:29;8.27;;;3.47;;
43088;SDS011;28709;52.030;5.652;2024-02-26T07:52:55;8.52;;;4.13;;
43088;SDS011;28709;52.030;5.652;2024-02-26T07:55:21;14.23;;;6.82;;
43088;SDS011;28709;52.030;5.652;2024-02-26T07:57:47;11.48;;;4.68;;
43088;SDS011;28709;52.030;5.652;2024-02-26T08:00:14;26.60;;;5.43;;
43088;SDS011;28709;52.030;5.652;2024-02-26T08:02:42;7.80;;;3.95;;
43088;SDS011;28709;52.030;5.652;2024-02-26T08:05:08;11.13;;;5.50;;
43088;SDS011;28709;52.030;5.652;2024-02-26T08:07:34;9.82;;;3.78;;
43088;SDS011;28709;52.030;5.652;2024-02-26T08:10:00;11.80;;;5.43;;
43088;SDS011;28709;52.030;5.652;2024-02-26T08:12:26;15.38;;;5.22;;
43088;SDS011;28709;52.030;5.652;2024-02-26T08:14:52;14.38;;;5.70;;
43088;SDS011;28709;52.030;5.652;2024-02-26T08:17:18;11.98;;;4.78;;
43088;SDS011;28709;52.030;5.652;2024-02-26T08:19:44;13.55;;;4.47;;
43088;SDS011;28709;52.030;5.652;2024-02-26T08:22:10;18.45;;;6.35;;
43088;SDS011;28709;52.030;5.652;2024-02-26T08:24:41;13.80;;;4.60;;
43088;SDS011;28709;52.030;5.652;2024-02-26T08:27:07;14.57;;;6.13;;
43088;SDS011;28709;52.030;5.652;2024-02-26T08:29:33;10.57;;;5.18;;
43088;SDS011;28709;52.030;5.652;2024-02-26T08:31:59;16.15;;;6.30;;
43088;SDS011;28709;52.030;5.652;2024-02-26T08:34:26;15.23;;;5.47;;
43088;SDS011;28709;52.030;5.652;2024-02-26T08:36:51;13.13;;;4.45;;
43088;SDS011;28709;52.030;5.652;2024-02-26T08:39:17;19.00;;;5.70;;
43088;SDS011;28709;52.030;5.652;2024-02-26T08:41:44;13.60;;;5.88;;
43088;SDS011;28709;52.030;5.652;2024-02-26T08:44:10;14.57;;;5.88;;
43088;SDS011;28709;52.030;5.652;2024-02-26T08:46:36;12.98;;;5.72;;
43088;SDS011;28709;52.030;5.652;2024-02-26T08:49:03;13.80;;;5.95;;
43088;SDS011;28709;52.030;5.652;2024-02-26T08:51:29;14.80;;;6.47;;
43088;SDS011;28709;52.030;5.652;2024-02-26T08:53:55;10.88;;;5.65;;
43088;SDS011;28709;52.030;5.652;2024-02-26T08:56:21;12.23;;;5.57;;
43088;SDS011;28709;52.030;5.652;2024-02-26T08:58:47;9.52;;;4.72;;
43088;SDS011;28709;52.030;5.652;2024-02-26T09:01:18;11.77;;;5.40;;
43088;SDS011;28709;52.030;5.652;2024-02-26T09:03:44;12.88;;;5.50;;
43088;SDS011;28709;52.030;5.652;2024-02-26T09:06:11;10.70;;;4.70;;
43088;SDS011;28709;52.030;5.652;2024-02-26T09:08:37;13.02;;;5.07;;
43088;SDS011;28709;52.030;5.652;2024-02-26T09:11:03;9.98;;;4.97;;
43088;SDS011;28709;52.030;5.652;2024-02-26T09:13:29;7.35;;;3.58;;
43088;SDS011;28709;52.030;5.652;2024-02-26T09:15:55;6.47;;;3.55;;
43088;SDS011;28709;52.030;5.652;2024-02-26T09:18:21;11.25;;;4.43;;
43088;SDS011;28709;52.030;5.652;2024-02-26T09:20:47;8.32;;;3.92;;
43088;SDS011;28709;52.030;5.652;2024-02-26T09:23:15;9.60;;;3.65;;
43088;SDS011;28709;52.030;5.652;2024-02-26T09:25:41;10.00;;;4.40;;
43088;SDS011;28709;52.030;5.652;2024-02-26T09:28:07;7.95;;;3.83;;
43088;SDS011;28709;52.030;5.652;2024-02-26T09:30:33;9.20;;;4.20;;
43088;SDS011;28709;52.030;5.652;2024-02-26T09:32:59;10.52;;;4.13;;
43088;SDS011;28709;52.030;5.652;2024-02-26T09:35:25;9.63;;;4.78;;
43088;SDS011;28709;52.030;5.652;2024-02-26T09:37:52;10.38;;;3.80;;
43088;SDS011;28709;52.030;5.652;2024-02-26T09:40:18;6.78;;;3.28;;
43088;SDS011;28709;52.030;5.652;2024-02-26T09:42:45;6.97;;;3.40;;
43088;SDS011;28709;52.030;5.652;2024-02-26T09:45:12;10.07;;;5.30;;
43088;SDS011;28709;52.030;5.652;2024-02-26T09:47:43;7.85;;;3.92;;
43088;SDS011;28709;52.030;5.652;2024-02-26T09:50:10;10.45;;;3.58;;
43088;SDS011;28709;52.030;5.652;2024-02-26T09:52:38;7.85;;;4.15;;
43088;SDS011;28709;52.030;5.652;2024-02-26T09:55:05;10.30;;;4.35;;
43088;SDS011;28709;52.030;5.652;2024-02-26T09:57:34;13.65;;;5.20;;
43088;SDS011;28709;52.030;5.652;2024-02-26T10:00:00;9.35;;;4.50;;
43088;SDS011;28709;52.030;5.652;2024-02-26T10:02:30;7.55;;;3.67;;
43088;SDS011;28709;52.030;5.652;2024-02-26T10:04:56;10.23;;;4.78;;
43088;SDS011;28709;52.030;5.652;2024-02-26T10:07:26;7.10;;;3.30;;
43088;SDS011;28709;52.030;5.652;2024-02-26T10:09:54;8.93;;;3.75;;
43088;SDS011;28709;52.030;5.652;2024-02-26T10:12:21;8.00;;;3.85;;
43088;SDS011;28709;52.030;5.652;2024-02-26T10:14:48;7.13;;;3.70;;
43088;SDS011;28709;52.030;5.652;2024-02-26T10:17:14;5.43;;;2.78;;
43088;SDS011;28709;52.030;5.652;2024-02-26T10:19:40;7.05;;;3.75;;
43088;SDS011;28709;52.030;5.652;2024-02-26T10:22:06;7.03;;;3.85;;
43088;SDS011;28709;52.030;5.652;2024-02-26T10:24:32;7.07;;;3.20;;
43088;SDS011;28709;52.030;5.652;2024-02-26T10:26:59;8.60;;;2.95;;
43088;SDS011;28709;52.030;5.652;2024-02-26T10:29:25;4.78;;;3.00;;
43088;SDS011;28709;52.030;5.652;2024-02-26T10:31:52;5.90;;;3.45;;
43088;SDS011;28709;52.030;5.652;2024-02-26T10:34:18;5.38;;;3.00;;
43088;SDS011;28709;52.030;5.652;2024-02-26T10:36:44;8.63;;;2.95;;
43088;SDS011;28709;52.030;5.652;2024-02-26T10:39:13;6.20;;;3.53;;
43088;SDS011;28709;52.030;5.652;2024-02-26T10:41:41;6.63;;;3.55;;
43088;SDS011;28709;52.030;5.652;2024-02-26T10:44:08;8.95;;;3.58;;
43088;SDS011;28709;52.030;5.652;2024-02-26T10:46:36;5.72;;;2.95;;
43088;SDS011;28709;52.030;5.652;2024-02-26T10:49:02;6.80;;;3.53;;
43088;SDS011;28709;52.030;5.652;2024-02-26T10:51:29;9.60;;;4.30;;
43088;SDS011;28709;52.030;5.652;2024-02-26T10:53:56;6.00;;;3.88;;
43088;SDS011;28709;52.030;5.652;2024-02-26T10:56:27;5.18;;;3.00;;
43088;SDS011;28709;52.030;5.652;2024-02-26T10:58:57;6.20;;;2.70;;
43088;SDS011;28709;52.030;5.652;2024-02-26T11:01:23;6.47;;;4.10;;
43088;SDS011;28709;52.030;5.652;2024-02-26T11:03:50;7.00;;;2.85;;
43088;SDS011;28709;52.030;5.652;2024-02-26T11:06:17;4.95;;;3.42;;
43088;SDS011;28709;52.030;5.652;2024-02-26T11:08:44;6.47;;;3.13;;
43088;SDS011;28709;52.030;5.652;2024-02-26T11:11:10;6.63;;;3.60;;
43088;SDS011;28709;52.030;5.652;2024-02-26T11:13:40;6.88;;;3.42;;
43088;SDS011;28709;52.030;5.652;2024-02-26T11:16:09;5.22;;;2.90;;
43088;SDS011;28709;52.030;5.652;2024-02-26T11:18:36;5.60;;;3.25;;
43088;SDS011;28709;52.030;5.652;2024-02-26T11:21:04;5.28;;;2.22;;
43088;SDS011;28709;52.030;5.652;2024-02-26T11:23:33;10.43;;;3.92;;
43088;SDS011;28709;52.030;5.652;2024-02-26T11:26:01;4.85;;;2.83;;
43088;SDS011;28709;52.030;5.652;2024-02-26T11:28:29;6.50;;;2.42;;
43088;SDS011;28709;52.030;5.652;2024-02-26T11:30:57;7.40;;;3.42;;
43088;SDS011;28709;52.030;5.652;2024-02-26T11:33:25;4.60;;;2.20;;
43088;SDS011;28709;52.030;5.652;2024-02-26T11:35:53;7.22;;;4.13;;
43088;SDS011;28709;52.030;5.652;2024-02-26T11:38:23;5.43;;;3.08;;
43088;SDS011;28709;52.030;5.652;2024-02-26T11:40:52;10.00;;;4.05;;
43088;SDS011;28709;52.030;5.652;2024-02-26T11:43:18;3.30;;;2.00;;
43088;SDS011;28709;52.030;5.652;2024-02-26T11:46:24;4.13;;;2.63;;
43088;SDS011;28709;52.030;5.652;2024-02-26T11:48:51;5.60;;;2.75;;
43088;SDS011;28709;52.030;5.652;2024-02-26T11:51:17;3.90;;;2.33;;
43088;SDS011;28709;52.030;5.652;2024-02-26T11:53:46;5.57;;;2.88;;
43088;SDS011;28709;52.030;5.652;2024-02-26T11:58:46;7.35;;;2.72;;
43088;SDS011;28709;52.030;5.652;2024-02-26T12:01:35;6.35;;;3.22;;
43088;SDS011;28709;52.030;5.652;2024-02-26T12:04:01;3.90;;;2.70;;
43088;SDS011;28709;52.030;5.652;2024-02-26T12:06:27;8.43;;;3.25;;
43088;SDS011;28709;52.030;5.652;2024-02-26T12:08:53;6.32;;;2.67;;
43088;SDS011;28709;52.030;5.652;2024-02-26T12:11:20;5.90;;;2.80;;
43088;SDS011;28709;52.030;5.652;2024-02-26T12:13:49;6.28;;;3.15;;
43088;SDS011;28709;52.030;5.652;2024-02-26T12:16:34;4.45;;;2.90;;
43088;SDS011;28709;52.030;5.652;2024-02-26T12:19:04;7.47;;;3.60;;
43088;SDS011;28709;52.030;5.652;2024-02-26T12:21:34;6.70;;;3.50;;
43088;SDS011;28709;52.030;5.652;2024-02-26T12:24:13;5.05;;;2.72;;
43088;SDS011;28709;52.030;5.652;2024-02-26T12:26:41;5.13;;;3.00;;
43088;SDS011;28709;52.030;5.652;2024-02-26T12:29:07;6.85;;;3.72;;
43088;SDS011;28709;52.030;5.652;2024-02-26T12:31:34;4.20;;;2.38;;
43088;SDS011;28709;52.030;5.652;2024-02-26T12:34:04;4.28;;;2.28;;
43088;SDS011;28709;52.030;5.652;2024-02-26T12:36:30;4.05;;;2.30;;
43088;SDS011;28709;52.030;5.652;2024-02-26T12:38:56;3.90;;;2.08;;
43088;SDS011;28709;52.030;5.652;2024-02-26T12:41:22;4.78;;;2.45;;
43088;SDS011;28709;52.030;5.652;2024-02-26T12:43:48;6.45;;;3.45;;
43088;SDS011;28709;52.030;5.652;2024-02-26T12:46:15;8.10;;;3.45;;
43088;SDS011;28709;52.030;5.652;2024-02-26T12:48:44;5.53;;;2.70;;
43088;SDS011;28709;52.030;5.652;2024-02-26T12:51:13;5.38;;;2.95;;
43088;SDS011;28709;52.030;5.652;2024-02-26T12:53:40;7.30;;;2.90;;
43088;SDS011;28709;52.030;5.652;2024-02-26T12:56:07;4.45;;;2.65;;
43088;SDS011;28709;52.030;5.652;2024-02-26T12:58:34;11.18;;;3.03;;
43088;SDS011;28709;52.030;5.652;2024-02-26T13:01:03;5.65;;;2.85;;
43088;SDS011;28709;52.030;5.652;2024-02-26T13:03:29;7.70;;;3.05;;
43088;SDS011;28709;52.030;5.652;2024-02-26T13:05:55;4.95;;;2.42;;
43088;SDS011;28709;52.030;5.652;2024-02-26T13:08:22;6.82;;;2.97;;
43088;SDS011;28709;52.030;5.652;2024-02-26T13:10:49;3.53;;;1.77;;
43088;SDS011;28709;52.030;5.652;2024-02-26T13:13:18;5.30;;;2.28;;
43088;SDS011;28709;52.030;5.652;2024-02-26T13:15:45;3.90;;;2.20;;
43088;SDS011;28709;52.030;5.652;2024-02-26T13:18:11;6.38;;;3.38;;
43088;SDS011;28709;52.030;5.652;2024-02-26T13:20:38;11.10;;;2.30;;
43088;SDS011;28709;52.030;5.652;2024-02-26T13:23:08;6.45;;;2.88;;
43088;SDS011;28709;52.030;5.652;2024-02-26T13:25:37;1.75;;;1.00;;
43088;SDS011;28709;52.030;5.652;2024-02-26T13:30:41;4.05;;;2.33;;
43088;SDS011;28709;52.030;5.652;2024-02-26T13:33:08;7.43;;;2.65;;
43088;SDS011;28709;52.030;5.652;2024-02-26T13:35:35;5.00;;;2.35;;
43088;SDS011;28709;52.030;5.652;2024-02-26T13:38:01;5.45;;;2.88;;
43088;SDS011;28709;52.030;5.652;2024-02-26T13:40:28;5.90;;;2.45;;
43088;SDS011;28709;52.030;5.652;2024-02-26T13:42:54;5.38;;;2.92;;
43088;SDS011;28709;52.030;5.652;2024-02-26T13:45:20;5.10;;;2.42;;
43088;SDS011;28709;52.030;5.652;2024-02-26T13:47:46;9.05;;;3.42;;
43088;SDS011;28709;52.030;5.652;2024-02-26T13:50:12;10.27;;;3.45;;
43088;SDS011;28709;52.030;5.652;2024-02-26T13:52:38;9.43;;;4.30;;
43088;SDS011;28709;52.030;5.652;2024-02-26T13:55:04;4.63;;;2.97;;
43088;SDS011;28709;52.030;5.652;2024-02-26T13:57:30;0.47;;;0.25;;
43088;SDS011;28709;52.030;5.652;2024-02-26T13:59:56;3.45;;;2.45;;
43088;SDS011;28709;52.030;5.652;2024-02-26T14:02:22;7.53;;;3.15;;
43088;SDS011;28709;52.030;5.652;2024-02-26T14:04:47;8.73;;;4.03;;
43088;SDS011;28709;52.030;5.652;2024-02-26T14:07:13;4.70;;;3.00;;
43088;SDS011;28709;52.030;5.652;2024-02-26T14:09:39;6.85;;;2.92;;
43088;SDS011;28709;52.030;5.652;2024-02-26T14:12:05;8.13;;;4.03;;
43088;SDS011;28709;52.030;5.652;2024-02-26T14:14:31;5.68;;;2.65;;
43088;SDS011;28709;52.030;5.652;2024-02-26T14:17:00;4.72;;;2.50;;
43088;SDS011;28709;52.030;5.652;2024-02-26T14:19:27;9.15;;;3.95;;
43088;SDS011;28709;52.030;5.652;2024-02-26T14:21:53;8.57;;;3.55;;
43088;SDS011;28709;52.030;5.652;2024-02-26T14:24:19;5.25;;;2.83;;
43088;SDS011;28709;52.030;5.652;2024-02-26T14:26:45;4.25;;;2.58;;
43088;SDS011;28709;52.030;5.652;2024-02-26T14:29:11;5.28;;;2.90;;
43088;SDS011;28709;52.030;5.652;2024-02-26T14:31:37;11.02;;;3.95;;
43088;SDS011;28709;52.030;5.652;2024-02-26T14:34:03;9.20;;;3.65;;
43088;SDS011;28709;52.030;5.652;2024-02-26T14:36:29;6.30;;;3.40;;
43088;SDS011;28709;52.030;5.652;2024-02-26T14:38:55;5.95;;;2.58;;
43088;SDS011;28709;52.030;5.652;2024-02-26T14:41:21;4.18;;;2.60;;
43088;SDS011;28709;52.030;5.652;2024-02-26T14:43:47;7.38;;;4.03;;
43088;SDS011;28709;52.030;5.652;2024-02-26T14:46:13;8.88;;;3.83;;
43088;SDS011;28709;52.030;5.652;2024-02-26T14:48:39;3.80;;;2.35;;